sensor_id;sensor_type;location;lat;lon;timestamp;pressure;altitude;pressure_sealevel;temperature;humidity
1207;BME280;593;53.184;8.216;2023-08-07T00:00:28;100349.25;;;19.32;100.00
1207;BME280;593;53.184;8.216;2023-08-07T00:02:53;100352.69;;;19.29;100.00
1207;BME280;593;53.184;8.216;2023-08-07T00:05:19;100350.28;;;19.28;100.00
1207;BME280;593;53.184;8.216;2023-08-07T00:07:44;100347.66;;;19.19;100.00
1207;BME280;593;53.184;8.216;2023-08-07T00:10:10;100355.69;;;19.24;100.00
1207;BME280;593;53.184;8.216;2023-08-07T00:12:36;100348.91;;;19.21;100.00
1207;BME280;593;53.184;8.216;2023-08-07T00:15:02;100342.50;;;19.17;100.00
1207;BME280;593;53.184;8.216;2023-08-07T00:17:27;100349.16;;;19.16;100.00
1207;BME280;593;53.184;8.216;2023-08-07T00:19:53;100343.88;;;19.11;100.00
1207;BME280;593;53.184;8.216;2023-08-07T00:22:19;100343.09;;;19.11;100.00
1207;BME280;593;53.184;8.216;2023-08-07T00:24:44;100339.06;;;19.08;100.00
1207;BME280;593;53.184;8.216;2023-08-07T00:27:09;100342.53;;;19.05;100.00
1207;BME280;593;53.184;8.216;2023-08-07T00:29:36;100342.06;;;19.03;100.00
1207;BME280;593;53.184;8.216;2023-08-07T00:32:02;100341.13;;;18.99;100.00
1207;BME280;593;53.184;8.216;2023-08-07T00:34:27;100344.25;;;18.98;100.00
1207;BME280;593;53.184;8.216;2023-08-07T00:36:53;100334.72;;;18.95;100.00
1207;BME280;593;53.184;8.216;2023-08-07T00:39:18;100325.53;;;18.79;100.00
1207;BME280;593;53.184;8.216;2023-08-07T00:41:43;100343.22;;;18.90;100.00
1207;BME280;593;53.184;8.216;2023-08-07T00:44:09;100347.84;;;18.86;100.00
1207;BME280;593;53.184;8.216;2023-08-07T00:46:34;100329.47;;;18.78;100.00
1207;BME280;593;53.184;8.216;2023-08-07T00:49:01;100331.53;;;18.81;100.00
1207;BME280;593;53.184;8.216;2023-08-07T00:51:27;100340.47;;;18.78;100.00
1207;BME280;593;53.184;8.216;2023-08-07T00:53:52;100331.75;;;18.76;100.00
1207;BME280;593;53.184;8.216;2023-08-07T00:56:17;100330.50;;;18.74;100.00
1207;BME280;593;53.184;8.216;2023-08-07T00:58:43;100338.63;;;18.70;100.00
1207;BME280;593;53.184;8.216;2023-08-07T01:01:09;100338.19;;;18.68;100.00
1207;BME280;593;53.184;8.216;2023-08-07T01:03:34;100341.63;;;18.65;100.00
1207;BME280;593;53.184;8.216;2023-08-07T01:05:59;100328.75;;;18.57;100.00
1207;BME280;593;53.184;8.216;2023-08-07T01:08:25;100339.09;;;18.60;100.00
1207;BME280;593;53.184;8.216;2023-08-07T01:13:42;100331.06;;;18.55;100.00
1207;BME280;593;53.184;8.216;2023-08-07T01:16:36;100341.63;;;18.53;100.00
1207;BME280;593;53.184;8.216;2023-08-07T01:19:03;100332.28;;;18.45;100.00
1207;BME280;593;53.184;8.216;2023-08-07T01:21:33;100337.47;;;18.47;100.00
1207;BME280;593;53.184;8.216;2023-08-07T01:23:58;100335.03;;;18.45;100.00
1207;BME280;593;53.184;8.216;2023-08-07T01:26:24;100342.84;;;18.43;100.00
1207;BME280;593;53.184;8.216;2023-08-07T01:29:40;100336.84;;;18.41;100.00
1207;BME280;593;53.184;8.216;2023-08-07T01:31:45;100338.34;;;18.39;100.00
1207;BME280;593;53.184;8.216;2023-08-07T01:34:14;100333.19;;;18.37;100.00
1207;BME280;593;53.184;8.216;2023-08-07T01:36:43;100334.31;;;18.36;100.00
1207;BME280;593;53.184;8.216;2023-08-07T01:39:10;100325.50;;;18.31;100.00
1207;BME280;593;53.184;8.216;2023-08-07T01:41:36;100341.00;;;18.35;100.00
1207;BME280;593;53.184;8.216;2023-08-07T01:44:02;100334.22;;;18.33;100.00
1207;BME280;593;53.184;8.216;2023-08-07T01:46:28;100332.28;;;18.33;100.00
1207;BME280;593;53.184;8.216;2023-08-07T01:48:53;100331.78;;;18.31;100.00
1207;BME280;593;53.184;8.216;2023-08-07T01:51:18;100324.69;;;18.30;100.00
1207;BME280;593;53.184;8.216;2023-08-07T01:53:44;100327.00;;;18.28;100.00
1207;BME280;593;53.184;8.216;2023-08-07T01:56:09;100330.88;;;18.27;100.00
1207;BME280;593;53.184;8.216;2023-08-07T01:58:35;100330.06;;;18.27;100.00
1207;BME280;593;53.184;8.216;2023-08-07T02:01:00;100332.38;;;18.25;100.00
1207;BME280;593;53.184;8.216;2023-08-07T02:03:25;100340.97;;;18.23;100.00
1207;BME280;593;53.184;8.216;2023-08-07T02:05:51;100333.03;;;18.22;100.00
1207;BME280;593;53.184;8.216;2023-08-07T02:08:17;100341.97;;;18.19;100.00
1207;BME280;593;53.184;8.216;2023-08-07T02:10:42;100331.78;;;18.19;100.00
1207;BME280;593;53.184;8.216;2023-08-07T02:13:07;100321.19;;;18.09;100.00
1207;BME280;593;53.184;8.216;2023-08-07T02:15:32;100337.63;;;18.18;100.00
1207;BME280;593;53.184;8.216;2023-08-07T02:17:58;100343.13;;;18.18;100.00
1207;BME280;593;53.184;8.216;2023-08-07T02:20:23;100339.94;;;18.16;100.00
1207;BME280;593;53.184;8.216;2023-08-07T02:22:48;100342.69;;;18.16;100.00
1207;BME280;593;53.184;8.216;2023-08-07T02:25:15;100331.88;;;18.11;100.00
1207;BME280;593;53.184;8.216;2023-08-07T02:27:40;100337.50;;;18.14;100.00
1207;BME280;593;53.184;8.216;2023-08-07T02:30:06;100342.53;;;18.12;100.00
1207;BME280;593;53.184;8.216;2023-08-07T02:32:32;100344.50;;;18.12;100.00
1207;BME280;593;53.184;8.216;2023-08-07T02:34:57;100340.91;;;18.11;100.00
1207;BME280;593;53.184;8.216;2023-08-07T02:37:23;100345.66;;;18.11;100.00
1207;BME280;593;53.184;8.216;2023-08-07T02:39:48;100346.44;;;18.11;100.00
1207;BME280;593;53.184;8.216;2023-08-07T02:42:13;100340.16;;;18.11;100.00
1207;BME280;593;53.184;8.216;2023-08-07T02:44:39;100331.41;;;18.09;100.00
1207;BME280;593;53.184;8.216;2023-08-07T02:47:04;100334.63;;;18.11;100.00
1207;BME280;593;53.184;8.216;2023-08-07T02:49:30;100332.66;;;18.11;100.00
1207;BME280;593;53.184;8.216;2023-08-07T02:51:55;100321.41;;;18.04;100.00
1207;BME280;593;53.184;8.216;2023-08-07T02:54:20;100335.78;;;18.10;100.00
1207;BME280;593;53.184;8.216;2023-08-07T02:56:46;100330.94;;;18.07;100.00
1207;BME280;593;53.184;8.216;2023-08-07T02:59:11;100331.88;;;18.11;100.00
1207;BME280;593;53.184;8.216;2023-08-07T03:01:37;100333.47;;;18.12;100.00
1207;BME280;593;53.184;8.216;2023-08-07T03:04:02;100339.78;;;18.12;100.00
1207;BME280;593;53.184;8.216;2023-08-07T03:06:28;100333.47;;;18.12;100.00
1207;BME280;593;53.184;8.216;2023-08-07T03:08:53;100334.28;;;18.12;100.00
1207;BME280;593;53.184;8.216;2023-08-07T03:11:18;100335.09;;;18.13;100.00
1207;BME280;593;53.184;8.216;2023-08-07T03:13:44;100337.84;;;18.13;100.00
1207;BME280;593;53.184;8.216;2023-08-07T03:16:09;100341.41;;;18.13;100.00
1207;BME280;593;53.184;8.216;2023-08-07T03:18:34;100338.66;;;18.13;100.00
1207;BME280;593;53.184;8.216;2023-08-07T03:21:00;100337.50;;;18.14;100.00
1207;BME280;593;53.184;8.216;2023-08-07T03:23:26;100342.19;;;18.14;100.00
1207;BME280;593;53.184;8.216;2023-08-07T03:26:11;100336.69;;;18.14;100.00
1207;BME280;593;53.184;8.216;2023-08-07T03:28:37;100336.69;;;18.14;100.00
1207;BME280;593;53.184;8.216;2023-08-07T03:31:03;100336.22;;;18.12;100.00
1207;BME280;593;53.184;8.216;2023-08-07T03:33:28;100343.81;;;18.15;100.00
1207;BME280;593;53.184;8.216;2023-08-07T03:35:54;100339.44;;;18.14;100.00
1207;BME280;593;53.184;8.216;2023-08-07T03:38:19;100335.78;;;18.10;100.00
1207;BME280;593;53.184;8.216;2023-08-07T03:40:45;100345.75;;;18.14;100.00
1207;BME280;593;53.184;8.216;2023-08-07T03:43:11;100344.63;;;18.15;100.00
1207;BME280;593;53.184;8.216;2023-08-07T03:45:36;100353.19;;;18.14;100.00
1207;BME280;593;53.184;8.216;2023-08-07T03:48:02;100348.19;;;18.16;100.00
1207;BME280;593;53.184;8.216;2023-08-07T03:50:27;100345.44;;;18.16;100.00
1207;BME280;593;53.184;8.216;2023-08-07T03:52:52;100346.56;;;18.15;100.00
1207;BME280;593;53.184;8.216;2023-08-07T03:55:18;100350.44;;;18.14;100.00
1207;BME280;593;53.184;8.216;2023-08-07T03:57:43;100354.38;;;18.13;100.00
1207;BME280;593;53.184;8.216;2023-08-07T04:00:09;100359.88;;;18.13;100.00
1207;BME280;593;53.184;8.216;2023-08-07T04:02:35;100354.38;;;18.13;100.00
1207;BME280;593;53.184;8.216;2023-08-07T04:05:00;100353.19;;;18.14;100.00
1207;BME280;593;53.184;8.216;2023-08-07T04:07:25;100351.25;;;18.14;100.00
1207;BME280;593;53.184;8.216;2023-08-07T04:09:51;100356.31;;;18.12;100.00
1207;BME280;593;53.184;8.216;2023-08-07T04:12:16;100357.13;;;18.13;100.00
1207;BME280;593;53.184;8.216;2023-08-07T04:14:41;100347.25;;;18.12;100.00
1207;BME280;593;53.184;8.216;2023-08-07T04:17:07;100345.66;;;18.11;100.00
1207;BME280;593;53.184;8.216;2023-08-07T04:19:32;100341.28;;;18.10;100.00
1207;BME280;593;53.184;8.216;2023-08-07T04:21:58;100345.16;;;18.09;100.00
1207;BME280;593;53.184;8.216;2023-08-07T04:24:23;100348.72;;;18.09;100.00
1207;BME280;593;53.184;8.216;2023-08-07T04:26:48;100349.06;;;18.08;100.00
1207;BME280;593;53.184;8.216;2023-08-07T04:29:14;100355.25;;;18.05;100.00
1207;BME280;593;53.184;8.216;2023-08-07T04:31:39;100354.59;;;18.08;100.00
1207;BME280;593;53.184;8.216;2023-08-07T04:34:05;100363.97;;;18.07;100.00
1207;BME280;593;53.184;8.216;2023-08-07T04:36:30;100367.06;;;18.05;100.00
1207;BME280;593;53.184;8.216;2023-08-07T04:38:55;100369.81;;;18.05;100.00
1207;BME280;593;53.184;8.216;2023-08-07T04:41:21;100374.06;;;18.03;100.00
1207;BME280;593;53.184;8.216;2023-08-07T04:43:46;100367.44;;;18.04;100.00
1207;BME280;593;53.184;8.216;2023-08-07T04:46:13;100365.34;;;18.01;100.00
1207;BME280;593;53.184;8.216;2023-08-07T04:48:38;100360.31;;;18.03;100.00
1207;BME280;593;53.184;8.216;2023-08-07T04:51:04;100366.94;;;18.02;100.00
1207;BME280;593;53.184;8.216;2023-08-07T04:53:29;100364.19;;;18.02;100.00
1207;BME280;593;53.184;8.216;2023-08-07T04:55:54;100360.66;;;18.01;100.00
1207;BME280;593;53.184;8.216;2023-08-07T04:58:20;100362.59;;;18.01;100.00
1207;BME280;593;53.184;8.216;2023-08-07T05:00:45;100365.34;;;18.01;100.00
1207;BME280;593;53.184;8.216;2023-08-07T05:03:11;100365.34;;;18.01;100.00
1207;BME280;593;53.184;8.216;2023-08-07T05:05:36;100366.47;;;18.00;100.00
1207;BME280;593;53.184;8.216;2023-08-07T05:08:01;100362.81;;;17.96;100.00
1207;BME280;593;53.184;8.216;2023-08-07T05:10:27;100366.47;;;18.00;100.00
1207;BME280;593;53.184;8.216;2023-08-07T05:12:52;100377.16;;;18.01;100.00
1207;BME280;593;53.184;8.216;2023-08-07T05:15:24;100364.75;;;17.95;100.00
1207;BME280;593;53.184;8.216;2023-08-07T05:17:53;100370.03;;;18.00;100.00
1207;BME280;593;53.184;8.216;2023-08-07T05:20:19;100359.47;;;17.90;100.00
1207;BME280;593;53.184;8.216;2023-08-07T05:22:44;100380.69;;;18.02;100.00
1207;BME280;593;53.184;8.216;2023-08-07T05:25:10;100373.25;;;18.02;100.00
1207;BME280;593;53.184;8.216;2023-08-07T05:27:37;100369.22;;;18.00;100.00
1207;BME280;593;53.184;8.216;2023-08-07T05:30:03;100376.47;;;18.04;100.00
1207;BME280;593;53.184;8.216;2023-08-07T05:32:29;100385.53;;;18.05;100.00
1207;BME280;593;53.184;8.216;2023-08-07T05:34:54;100382.78;;;18.05;100.00
1207;BME280;593;53.184;8.216;2023-08-07T05:37:20;100391.84;;;18.05;100.00
1207;BME280;593;53.184;8.216;2023-08-07T05:39:45;100389.91;;;18.06;100.00
1207;BME280;593;53.184;8.216;2023-08-07T05:42:11;100393.13;;;18.08;100.00
1207;BME280;593;53.184;8.216;2023-08-07T05:44:37;100388.44;;;18.08;100.00
1207;BME280;593;53.184;8.216;2023-08-07T05:47:03;100386.81;;;18.07;100.00
1207;BME280;593;53.184;8.216;2023-08-07T05:49:28;100388.06;;;18.10;100.00
1207;BME280;593;53.184;8.216;2023-08-07T05:51:54;100384.72;;;18.04;100.00
1207;BME280;593;53.184;8.216;2023-08-07T05:54:22;100392.91;;;18.13;100.00
1207;BME280;593;53.184;8.216;2023-08-07T05:56:47;100400.00;;;18.14;100.00
1207;BME280;593;53.184;8.216;2023-08-07T05:59:13;100403.25;;;18.16;100.00
1207;BME280;593;53.184;8.216;2023-08-07T06:01:38;100388.06;;;18.10;100.00
1207;BME280;593;53.184;8.216;2023-08-07T06:04:04;100398.19;;;18.18;100.00
1207;BME280;593;53.184;8.216;2023-08-07T06:06:29;100401.06;;;18.21;100.00
1207;BME280;593;53.184;8.216;2023-08-07T06:08:55;100405.09;;;18.24;100.00
1207;BME280;593;53.184;8.216;2023-08-07T06:11:21;100412.69;;;18.27;100.00
1207;BME280;593;53.184;8.216;2023-08-07T06:13:46;100417.50;;;18.30;100.00
1207;BME280;593;53.184;8.216;2023-08-07T06:16:11;100420.41;;;18.33;100.00
1207;BME280;593;53.184;8.216;2023-08-07T06:18:37;100422.00;;;18.34;100.00
1207;BME280;593;53.184;8.216;2023-08-07T06:21:03;100427.19;;;18.36;100.00
1207;BME280;593;53.184;8.216;2023-08-07T06:23:32;100436.72;;;18.38;100.00
1207;BME280;593;53.184;8.216;2023-08-07T06:25:57;100427.28;;;18.39;100.00
1207;BME280;593;53.184;8.216;2023-08-07T06:28:22;100423.41;;;18.40;100.00
1207;BME280;593;53.184;8.216;2023-08-07T06:30:47;100420.28;;;18.42;100.00
1207;BME280;593;53.184;8.216;2023-08-07T06:33:13;100424.66;;;18.43;100.00
1207;BME280;593;53.184;8.216;2023-08-07T06:35:39;100425.47;;;18.43;100.00
1207;BME280;593;53.184;8.216;2023-08-07T06:38:05;100418.00;;;18.44;100.00
1207;BME280;593;53.184;8.216;2023-08-07T06:40:30;100426.75;;;18.46;100.00
1207;BME280;593;53.184;8.216;2023-08-07T06:42:55;100414.59;;;18.47;100.00
1207;BME280;593;53.184;8.216;2023-08-07T06:45:21;100422.84;;;18.47;100.00
1207;BME280;593;53.184;8.216;2023-08-07T06:47:46;100424.47;;;18.48;100.00
1207;BME280;593;53.184;8.216;2023-08-07T06:50:13;100420.56;;;18.49;100.00
1207;BME280;593;53.184;8.216;2023-08-07T06:52:38;100422.19;;;18.50;100.00
1207;BME280;593;53.184;8.216;2023-08-07T06:55:04;100428.50;;;18.50;100.00
1207;BME280;593;53.184;8.216;2023-08-07T06:57:29;100430.91;;;18.52;100.00
1207;BME280;593;53.184;8.216;2023-08-07T06:59:55;100429.78;;;18.53;100.00
1207;BME280;593;53.184;8.216;2023-08-07T07:02:20;100430.22;;;18.55;100.00
1207;BME280;593;53.184;8.216;2023-08-07T07:04:46;100427.03;;;18.53;100.00
1207;BME280;593;53.184;8.216;2023-08-07T07:07:11;100433.78;;;18.55;100.00
1207;BME280;593;53.184;8.216;2023-08-07T07:09:36;100424.84;;;18.59;100.00
1207;BME280;593;53.184;8.216;2023-08-07T07:12:02;100425.63;;;18.59;100.00
1207;BME280;593;53.184;8.216;2023-08-07T07:14:27;100427.84;;;18.66;100.00
1207;BME280;593;53.184;8.216;2023-08-07T07:16:53;100427.16;;;18.69;100.00
1207;BME280;593;53.184;8.216;2023-08-07T07:19:18;100430.72;;;18.69;100.00
1207;BME280;593;53.184;8.216;2023-08-07T07:21:44;100443.13;;;18.75;100.00
1207;BME280;593;53.184;8.216;2023-08-07T07:24:09;100439.34;;;18.80;100.00
1207;BME280;593;53.184;8.216;2023-08-07T07:26:35;100450.13;;;18.85;100.00
1207;BME280;593;53.184;8.216;2023-08-07T07:29:00;100441.19;;;18.88;100.00
1207;BME280;593;53.184;8.216;2023-08-07T07:31:26;100448.44;;;18.92;100.00
1207;BME280;593;53.184;8.216;2023-08-07T07:33:51;100456.81;;;18.96;100.00
1207;BME280;593;53.184;8.216;2023-08-07T07:36:17;100459.34;;;19.01;100.00
1207;BME280;593;53.184;8.216;2023-08-07T07:38:45;100457.16;;;19.06;100.00
1207;BME280;593;53.184;8.216;2023-08-07T07:41:11;100467.97;;;19.11;100.00
1207;BME280;593;53.184;8.216;2023-08-07T07:43:37;100462.94;;;19.13;100.00
1207;BME280;593;53.184;8.216;2023-08-07T07:46:03;100466.22;;;19.19;100.00
1207;BME280;593;53.184;8.216;2023-08-07T07:48:29;100461.66;;;19.23;100.00
1207;BME280;593;53.184;8.216;2023-08-07T07:51:01;100457.50;;;19.29;100.00
1207;BME280;593;53.184;8.216;2023-08-07T07:53:27;100464.75;;;19.34;100.00
1207;BME280;593;53.184;8.216;2023-08-07T07:55:53;100467.03;;;19.32;100.00
1207;BME280;593;53.184;8.216;2023-08-07T07:58:19;100479.25;;;19.43;100.00
1207;BME280;593;53.184;8.216;2023-08-07T08:00:45;100479.03;;;19.48;100.00
1207;BME280;593;53.184;8.216;2023-08-07T08:03:10;100486.25;;;19.52;100.00
1207;BME280;593;53.184;8.216;2023-08-07T08:05:37;100480.50;;;19.57;100.00
1207;BME280;593;53.184;8.216;2023-08-07T08:08:03;100485.34;;;19.60;100.00
1207;BME280;593;53.184;8.216;2023-08-07T08:10:28;100491.31;;;19.62;100.00
1207;BME280;593;53.184;8.216;2023-08-07T08:12:56;100489.00;;;19.64;100.00
1207;BME280;593;53.184;8.216;2023-08-07T08:15:22;100494.88;;;19.63;100.00
1207;BME280;593;53.184;8.216;2023-08-07T08:17:48;100499.34;;;19.67;100.00
1207;BME280;593;53.184;8.216;2023-08-07T08:20:14;100505.69;;;19.68;100.00
1207;BME280;593;53.184;8.216;2023-08-07T08:22:44;100510.53;;;19.71;100.00
1207;BME280;593;53.184;8.216;2023-08-07T08:25:09;100501.06;;;19.72;100.00
1207;BME280;593;53.184;8.216;2023-08-07T08:27:39;100497.84;;;19.70;100.00
1207;BME280;593;53.184;8.216;2023-08-07T08:30:06;100509.09;;;19.77;100.00
1207;BME280;593;53.184;8.216;2023-08-07T08:32:32;100512.31;;;19.79;100.00
1207;BME280;593;53.184;8.216;2023-08-07T08:34:58;100506.13;;;19.82;100.00
1207;BME280;593;53.184;8.216;2023-08-07T08:37:23;100512.09;;;19.84;100.00
1207;BME280;593;53.184;8.216;2023-08-07T08:39:49;100512.91;;;19.84;99.90
1207;BME280;593;53.184;8.216;2023-08-07T08:42:15;100498.06;;;19.77;99.27
1207;BME280;593;53.184;8.216;2023-08-07T08:44:50;100523.69;;;19.90;98.79
1207;BME280;593;53.184;8.216;2023-08-07T08:47:16;100531.16;;;19.89;98.38
1207;BME280;593;53.184;8.216;2023-08-07T08:49:46;100546.25;;;19.92;97.69
1207;BME280;593;53.184;8.216;2023-08-07T08:52:16;100549.00;;;19.92;97.52
1207;BME280;593;53.184;8.216;2023-08-07T08:54:42;100553.75;;;19.91;97.19
1207;BME280;593;53.184;8.216;2023-08-07T08:57:09;100546.25;;;19.92;97.21
1207;BME280;593;53.184;8.216;2023-08-07T08:59:36;100544.97;;;19.89;96.95
1207;BME280;593;53.184;8.216;2023-08-07T09:02:02;100555.69;;;19.91;96.69
1207;BME280;593;53.184;8.216;2023-08-07T09:04:28;100543.84;;;19.90;96.65
1207;BME280;593;53.184;8.216;2023-08-07T09:06:54;100534.97;;;19.84;96.14
1207;BME280;593;53.184;8.216;2023-08-07T09:09:20;100547.72;;;19.89;95.88
1207;BME280;593;53.184;8.216;2023-08-07T09:11:49;100548.53;;;19.90;95.45
1207;BME280;593;53.184;8.216;2023-08-07T09:14:20;100548.53;;;19.90;95.22
1207;BME280;593;53.184;8.216;2023-08-07T09:16:48;100540.06;;;19.82;94.61
1207;BME280;593;53.184;8.216;2023-08-07T09:19:14;100546.97;;;19.89;93.74
1207;BME280;593;53.184;8.216;2023-08-07T09:21:39;100549.72;;;19.89;92.51
1207;BME280;593;53.184;8.216;2023-08-07T09:24:04;100553.63;;;19.88;91.07
1207;BME280;593;53.184;8.216;2023-08-07T09:26:32;100552.81;;;19.87;89.68
1207;BME280;593;53.184;8.216;2023-08-07T09:28:58;100556.38;;;19.88;88.76
1207;BME280;593;53.184;8.216;2023-08-07T09:31:24;100561.53;;;19.89;87.34
1207;BME280;593;53.184;8.216;2023-08-07T09:33:54;100580.88;;;19.89;86.89
1207;BME280;593;53.184;8.216;2023-08-07T09:36:19;100602.50;;;19.87;86.83
1207;BME280;593;53.184;8.216;2023-08-07T09:38:49;100619.06;;;19.87;86.94
1207;BME280;593;53.184;8.216;2023-08-07T09:41:17;100611.59;;;19.88;87.14
1207;BME280;593;53.184;8.216;2023-08-07T09:43:44;100612.72;;;19.87;87.77
1207;BME280;593;53.184;8.216;2023-08-07T09:46:09;100591.47;;;19.87;88.09
1207;BME280;593;53.184;8.216;2023-08-07T09:48:39;100589.50;;;19.88;89.10
1207;BME280;593;53.184;8.216;2023-08-07T09:51:05;100595.84;;;19.88;89.22
1207;BME280;593;53.184;8.216;2023-08-07T09:53:31;100597.44;;;19.89;89.50
1207;BME280;593;53.184;8.216;2023-08-07T09:55:56;100599.88;;;19.91;90.62
1207;BME280;593;53.184;8.216;2023-08-07T09:58:23;100599.50;;;19.92;91.21
1207;BME280;593;53.184;8.216;2023-08-07T10:00:49;100602.72;;;19.94;91.59
1207;BME280;593;53.184;8.216;2023-08-07T10:03:15;100599.19;;;19.94;91.35
1207;BME280;593;53.184;8.216;2023-08-07T10:05:42;100636.66;;;19.95;91.20
1207;BME280;593;53.184;8.216;2023-08-07T10:08:10;100637.03;;;19.93;90.68
1207;BME280;593;53.184;8.216;2023-08-07T10:10:36;100646.13;;;19.94;90.21
1207;BME280;593;53.184;8.216;2023-08-07T10:13:02;100652.44;;;19.94;90.15
1207;BME280;593;53.184;8.216;2023-08-07T10:15:29;100655.19;;;19.94;90.92
1207;BME280;593;53.184;8.216;2023-08-07T10:17:56;100649.34;;;19.96;91.67
1207;BME280;593;53.184;8.216;2023-08-07T10:20:22;100638.16;;;19.92;92.87
1207;BME280;593;53.184;8.216;2023-08-07T10:22:50;100650.16;;;19.96;93.71
1207;BME280;593;53.184;8.216;2023-08-07T10:25:20;100656.44;;;19.97;94.70
1207;BME280;593;53.184;8.216;2023-08-07T10:27:51;100660.38;;;19.96;94.92
1207;BME280;593;53.184;8.216;2023-08-07T10:30:20;100665.78;;;19.92;94.93
1207;BME280;593;53.184;8.216;2023-08-07T10:32:46;100661.06;;;19.93;95.10
1207;BME280;593;53.184;8.216;2023-08-07T10:35:28;100646.34;;;19.89;94.76
1207;BME280;593;53.184;8.216;2023-08-07T10:37:54;100652.31;;;19.91;95.13
1207;BME280;593;53.184;8.216;2023-08-07T10:40:19;100640.47;;;19.90;94.97
1207;BME280;593;53.184;8.216;2023-08-07T10:45:18;100637.25;;;19.88;95.53
1207;BME280;593;53.184;8.216;2023-08-07T10:48:05;100633.31;;;19.89;96.20
1207;BME280;593;53.184;8.216;2023-08-07T10:50:32;100630.56;;;19.89;96.49
1207;BME280;593;53.184;8.216;2023-08-07T10:53:04;100614.94;;;19.81;96.61
1207;BME280;593;53.184;8.216;2023-08-07T10:55:46;100626.31;;;19.92;96.49
1207;BME280;593;53.184;8.216;2023-08-07T10:58:22;100618.75;;;19.89;95.90
1207;BME280;593;53.184;8.216;2023-08-07T11:00:50;100623.22;;;19.93;96.03
1207;BME280;593;53.184;8.216;2023-08-07T11:03:28;100625.16;;;19.93;95.17
1207;BME280;593;53.184;8.216;2023-08-07T11:05:53;100636.66;;;19.95;94.34
1207;BME280;593;53.184;8.216;2023-08-07T11:08:23;100637.47;;;19.95;93.83
1207;BME280;593;53.184;8.216;2023-08-07T11:10:51;100639.09;;;19.96;93.05
1207;BME280;593;53.184;8.216;2023-08-07T11:13:16;100636.78;;;19.98;92.41
1207;BME280;593;53.184;8.216;2023-08-07T11:15:41;100641.16;;;19.99;92.25
1207;BME280;593;53.184;8.216;2023-08-07T11:18:07;100636.44;;;20.00;92.26
1207;BME280;593;53.184;8.216;2023-08-07T11:20:34;100638.88;;;20.01;91.63
1207;BME280;593;53.184;8.216;2023-08-07T11:23:00;100640.13;;;20.04;91.63
1207;BME280;593;53.184;8.216;2023-08-07T11:25:26;100629.88;;;20.04;91.07
1207;BME280;593;53.184;8.216;2023-08-07T11:27:51;100637.81;;;20.06;90.24
1207;BME280;593;53.184;8.216;2023-08-07T11:30:17;100643.81;;;20.08;90.32
1207;BME280;593;53.184;8.216;2023-08-07T11:32:42;100639.09;;;20.08;90.28
1207;BME280;593;53.184;8.216;2023-08-07T11:35:08;100643.44;;;20.09;89.67
1207;BME280;593;53.184;8.216;2023-08-07T11:37:33;100631.50;;;20.05;88.54
1207;BME280;593;53.184;8.216;2023-08-07T11:40:00;100644.16;;;20.06;88.27
1207;BME280;593;53.184;8.216;2023-08-07T11:42:27;100661.41;;;20.15;87.55
1207;BME280;593;53.184;8.216;2023-08-07T11:44:53;100664.28;;;20.19;87.71
1207;BME280;593;53.184;8.216;2023-08-07T11:47:18;100651.63;;;20.18;87.65
1207;BME280;593;53.184;8.216;2023-08-07T11:49:44;100667.63;;;20.24;86.64
1207;BME280;593;53.184;8.216;2023-08-07T11:52:10;100668.91;;;20.27;86.20
1207;BME280;593;53.184;8.216;2023-08-07T11:54:36;100684.34;;;20.28;85.96
1207;BME280;593;53.184;8.216;2023-08-07T11:57:01;100679.94;;;20.27;85.32
1207;BME280;593;53.184;8.216;2023-08-07T11:59:26;100687.56;;;20.30;85.25
1207;BME280;593;53.184;8.216;2023-08-07T12:01:52;100689.97;;;20.31;85.07
1207;BME280;593;53.184;8.216;2023-08-07T12:04:17;100691.25;;;20.34;85.06
1207;BME280;593;53.184;8.216;2023-08-07T12:06:53;100680.66;;;20.36;84.87
1207;BME280;593;53.184;8.216;2023-08-07T12:09:19;100679.47;;;20.37;84.56
1207;BME280;593;53.184;8.216;2023-08-07T12:11:46;100686.28;;;20.39;84.34
1207;BME280;593;53.184;8.216;2023-08-07T12:14:15;100688.25;;;20.39;84.47
1207;BME280;593;53.184;8.216;2023-08-07T12:16:44;100701.03;;;20.43;84.62
1207;BME280;593;53.184;8.216;2023-08-07T12:19:10;100701.47;;;20.45;84.19
1207;BME280;593;53.184;8.216;2023-08-07T12:21:36;100705.84;;;20.47;83.75
1207;BME280;593;53.184;8.216;2023-08-07T12:24:01;100702.72;;;20.48;83.04
1207;BME280;593;53.184;8.216;2023-08-07T12:26:26;100692.50;;;20.49;82.99
1207;BME280;593;53.184;8.216;2023-08-07T12:28:53;100697.34;;;20.52;82.91
1207;BME280;593;53.184;8.216;2023-08-07T12:31:19;100695.47;;;20.56;82.56
1207;BME280;593;53.184;8.216;2023-08-07T12:33:44;100691.44;;;20.53;83.46
1207;BME280;593;53.184;8.216;2023-08-07T12:36:09;100701.91;;;20.60;83.78
1207;BME280;593;53.184;8.216;2023-08-07T12:38:35;100702.47;;;20.65;84.04
1207;BME280;593;53.184;8.216;2023-08-07T12:41:01;100691.06;;;20.67;83.36
1207;BME280;593;53.184;8.216;2023-08-07T12:43:28;100681.53;;;20.64;82.92
1207;BME280;593;53.184;8.216;2023-08-07T12:45:53;100706.25;;;20.73;82.89
1207;BME280;593;53.184;8.216;2023-08-07T12:48:19;100703.13;;;20.74;82.45
1207;BME280;593;53.184;8.216;2023-08-07T12:50:45;100711.91;;;20.76;81.77
1207;BME280;593;53.184;8.216;2023-08-07T12:53:10;100698.53;;;20.78;80.72
1207;BME280;593;53.184;8.216;2023-08-07T12:55:36;100708.91;;;20.81;81.10
1207;BME280;593;53.184;8.216;2023-08-07T12:58:01;100700.59;;;20.81;80.81
1207;BME280;593;53.184;8.216;2023-08-07T13:00:26;100696.34;;;20.84;80.55
1207;BME280;593;53.184;8.216;2023-08-07T13:02:53;100692.41;;;20.85;81.04
1207;BME280;593;53.184;8.216;2023-08-07T13:05:20;100705.97;;;20.90;80.41
1207;BME280;593;53.184;8.216;2023-08-07T13:07:46;100697.22;;;20.88;78.83
1207;BME280;593;53.184;8.216;2023-08-07T13:10:13;100715.44;;;20.89;77.84
1207;BME280;593;53.184;8.216;2023-08-07T13:12:40;100720.63;;;20.90;76.63
1207;BME280;593;53.184;8.216;2023-08-07T13:15:08;100720.25;;;20.92;75.91